This is the latest recevied weather packets stored in our database for station/object WE3WEE. If no packets are shown the sender has not sent any weather packets the latest 10 day(s).
| Time | Temp. | Humidity | Pressure | Rain* | Wind** | Luminosity | Snow |
|---|---|---|---|---|---|---|---|
| 1777879985 | 4.44° C | 79% | 1012.8 hPa | 0 mm | - | - | - |
| 1777879683 | 5° C | 76% | 1012.8 hPa | 0 mm | - | - | - |
| 1777879379 | 5° C | 75% | 1012.8 hPa | 0 mm | - | - | - |
| 1777879076 | 5° C | 73% | 1012.8 hPa | 0 mm | - | - | - |
| 1777878773 | 5° C | 74% | 1012.8 hPa | 0 mm | - | - | - |
| 1777878471 | 5° C | 75% | 1012.8 hPa | 0 mm | - | - | - |
| 1777878167 | 5° C | 74% | 1013.8 hPa | 0 mm | - | - | - |
| 1777877863 | 5° C | 74% | 1013.8 hPa | 0 mm | - | - | - |
| 1777877560 | 5° C | 74% | 1013.8 hPa | 0 mm | - | - | - |
| 1777877251 | 5° C | 75% | 1012.8 hPa | 0 mm | - | - | - |
| 1777876949 | 4.44° C | 76% | 1012.8 hPa | 0 mm | - | - | - |
| 1777876646 | 4.44° C | 78% | 1012.8 hPa | 0 mm | - | - | - |
| 1777876344 | 3.89° C | 80% | 1012.8 hPa | 0 mm | - | - | - |
| 1777876040 | 3.89° C | 81% | 1012.8 hPa | 0 mm | - | - | - |
| 1777875736 | 3.89° C | 81% | 1012.8 hPa | 0 mm | - | - | - |
| 1777875432 | 4.44° C | 79% | 1012.8 hPa | 0 mm | - | - | - |
| 1777875129 | 4.44° C | 79% | 1013.8 hPa | 0 mm | - | - | - |
| 1777874826 | 4.44° C | 79% | 1013.8 hPa | 0 mm | - | - | - |
| 1777874522 | 3.89° C | 80% | 1012.8 hPa | 0 mm | - | - | - |
| 1777874219 | 3.89° C | 82% | 1012.8 hPa | 0 mm | - | - | - |
| 1777873916 | 3.33° C | 82% | 1012.8 hPa | 0 mm | - | - | - |
| 1777873613 | 3.33° C | 84% | 1013.8 hPa | 0 mm | - | - | - |
| 1777873311 | 3.89° C | 83% | 1013.8 hPa | 0 mm | - | - | - |
| 1777873007 | 3.89° C | 82% | 1013.8 hPa | 0 mm | - | - | - |
| 1777872704 | 4.44° C | 81% | 1013.8 hPa | 0 mm | - | - | - |
* Rain latest hour (hover to see other rain measurements)
** Current wind speed in m/s (hover to see current wind gust speed)